Time;durP1;ratioP1;P1;durP2;ratioP2;P2;SDS_P1;SDS_P2;PMS_P1;PMS_P2;Temp;Humidity;BMP_temperature;BMP_pressure;BME280_temperature;BME280_humidity;BME280_pressure;Samples;Min_cycle;Max_cycle;Signal;HPM_P1;HPM_P2
2024/01/14 00:02:12;0.00;0.00;0.62;0.00;0.00;0.62;2.67;2.00;;;18.30;21.60;;;;;;2252094;61;20439;-58
2024/01/14 00:04:57;0.00;0.00;0.62;0.00;0.00;0.62;2.90;2.07;;;18.30;21.70;;;;;;2252495;61;20366;-59
2024/01/14 00:07:42;0.00;0.00;0.62;0.00;0.00;0.62;2.50;1.90;;;18.20;21.60;;;;;;2252202;61;20394;-63
2024/01/14 00:10:28;0.00;0.00;0.62;0.00;0.00;0.62;2.37;1.70;;;18.30;21.60;;;;;;2252772;61;20446;-56
2024/01/14 00:13:13;0.00;0.00;0.62;0.00;0.00;0.62;2.43;1.90;;;18.30;21.70;;;;;;2251650;61;20395;-65
2024/01/14 00:15:58;0.00;0.00;0.62;0.00;0.00;0.62;2.90;1.80;;;18.30;21.70;;;;;;2252566;61;20771;-55
2024/01/14 00:18:42;0.00;0.00;0.62;0.00;0.00;0.62;3.03;1.87;;;18.20;21.50;;;;;;2252210;61;20386;-56
2024/01/14 00:21:26;0.00;0.00;0.62;0.00;0.00;0.62;2.20;1.70;;;18.30;21.60;;;;;;2252186;61;20486;-60
2024/01/14 00:24:11;0.00;0.00;0.62;0.00;0.00;0.62;2.63;1.87;;;18.30;21.60;;;;;;2252297;61;20826;-59
2024/01/14 00:26:57;0.00;0.00;0.62;0.00;0.00;0.62;2.47;1.80;;;18.30;21.60;;;;;;2252500;61;20399;-58
2024/01/14 00:29:41;0.00;0.00;0.62;0.00;0.00;0.62;2.60;1.83;;;18.20;21.60;;;;;;2252128;61;20374;-60
2024/01/14 00:32:26;0.00;0.00;0.62;0.00;0.00;0.62;2.30;1.83;;;18.20;21.60;;;;;;2252323;61;20918;-58
2024/01/14 00:35:11;0.00;0.00;0.62;0.00;0.00;0.62;2.27;1.70;;;18.20;21.50;;;;;;2251990;61;20771;-55
2024/01/14 00:37:55;0.00;0.00;0.62;0.00;0.00;0.62;2.53;1.47;;;18.20;21.50;;;;;;2252396;61;20399;-58
2024/01/14 00:40:40;0.00;0.00;0.62;0.00;0.00;0.62;2.67;1.83;;;18.20;21.50;;;;;;2252264;61;20414;-58
2024/01/14 00:43:27;0.00;0.00;0.62;0.00;0.00;0.62;2.70;2.00;;;18.20;21.60;;;;;;2252034;61;20445;-58
2024/01/14 00:46:12;0.00;0.00;0.62;0.00;0.00;0.62;3.17;2.10;;;18.20;21.60;;;;;;2252328;61;20371;-59
2024/01/14 00:48:56;0.00;0.00;0.62;0.00;0.00;0.62;2.27;1.60;;;18.20;21.60;;;;;;2252320;61;20382;-57
2024/01/14 00:51:41;0.00;0.00;0.62;0.00;0.00;0.62;2.67;1.67;;;18.20;21.60;;;;;;2251106;61;20369;-59
2024/01/14 00:54:25;0.00;0.00;0.62;0.00;0.00;0.62;2.23;1.70;;;18.20;21.60;;;;;;2252450;61;20417;-61
2024/01/14 00:57:10;0.00;0.00;0.62;0.00;0.00;0.62;2.00;1.50;;;18.20;21.60;;;;;;2252258;61;20451;-59
2024/01/14 00:59:56;0.00;0.00;0.62;0.00;0.00;0.62;2.03;1.53;;;18.20;21.60;;;;;;2252590;61;20367;-58
2024/01/14 01:02:40;0.00;0.00;0.62;0.00;0.00;0.62;2.10;1.67;;;18.20;21.60;;;;;;2252009;61;20414;-57
2024/01/14 01:05:25;0.00;0.00;0.62;0.00;0.00;0.62;3.90;1.90;;;18.20;21.60;;;;;;2252138;61;20371;-57
2024/01/14 01:08:09;0.00;0.00;0.62;0.00;0.00;0.62;2.57;1.60;;;18.20;21.60;;;;;;2252239;61;20366;-54
2024/01/14 01:10:54;0.00;0.00;0.62;0.00;0.00;0.62;2.10;1.50;;;18.20;21.60;;;;;;2252334;61;20455;-62
2024/01/14 01:13:38;0.00;0.00;0.62;0.00;0.00;0.62;2.30;1.60;;;18.20;21.60;;;;;;2251878;61;20433;-58
2024/01/14 01:16:24;0.00;0.00;0.62;0.00;0.00;0.62;2.20;1.50;;;18.20;21.60;;;;;;2252402;61;20374;-56
2024/01/14 01:19:09;0.00;0.00;0.62;0.00;0.00;0.62;2.80;1.87;;;18.20;21.60;;;;;;2252337;61;20379;-56
2024/01/14 01:21:53;0.00;0.00;0.62;0.00;0.00;0.62;2.27;1.70;;;18.20;21.60;;;;;;2251393;61;20394;-54
2024/01/14 01:24:38;0.00;0.00;0.62;0.00;0.00;0.62;2.30;1.70;;;18.20;21.60;;;;;;2252230;61;20386;-57
2024/01/14 01:27:23;0.00;0.00;0.62;0.00;0.00;0.62;2.53;1.40;;;18.20;21.70;;;;;;2251973;61;20365;-55
2024/01/14 01:30:09;0.00;0.00;0.62;0.00;0.00;0.62;2.60;1.70;;;18.20;21.60;;;;;;2252443;61;20879;-53
2024/01/14 01:32:55;0.00;0.00;0.62;0.00;0.00;0.62;2.47;1.80;;;18.20;21.70;;;;;;2251973;61;20394;-54
2024/01/14 01:35:40;0.00;0.00;0.62;0.00;0.00;0.62;4.80;1.53;;;18.20;21.70;;;;;;2252199;61;20370;-57
2024/01/14 01:38:24;0.00;0.00;0.62;0.00;0.00;0.62;2.10;1.50;;;18.20;21.70;;;;;;2252361;61;20487;-59
2024/01/14 01:41:09;0.00;0.00;0.62;0.00;0.00;0.62;2.27;1.47;;;18.20;21.70;;;;;;2252243;61;20391;-56
2024/01/14 01:43:54;0.00;0.00;0.62;0.00;0.00;0.62;2.07;1.47;;;18.20;21.70;;;;;;2252133;61;20787;-53
2024/01/14 01:46:39;0.00;0.00;0.62;0.00;0.00;0.62;2.00;1.50;;;18.20;21.70;;;;;;2252162;61;20796;-60
2024/01/14 01:49:26;0.00;0.00;0.62;0.00;0.00;0.62;2.17;1.80;;;18.20;21.70;;;;;;2252811;61;20378;-56
2024/01/14 01:52:13;0.00;0.00;0.62;0.00;0.00;0.62;2.87;1.60;;;18.20;21.70;;;;;;2252702;61;20417;-53
2024/01/14 01:54:58;0.00;0.00;0.62;0.00;0.00;0.62;1.97;1.40;;;18.20;21.70;;;;;;2252954;61;20414;-56
2024/01/14 01:57:45;0.00;0.00;0.62;0.00;0.00;0.62;2.53;1.50;;;18.20;21.70;;;;;;2252891;61;20363;-52
2024/01/14 02:00:34;0.00;0.00;0.62;0.00;0.00;0.62;2.53;1.60;;;18.20;21.70;;;;;;2252732;61;20451;-59
2024/01/14 02:03:20;0.00;0.00;0.62;0.00;0.00;0.62;2.03;1.57;;;18.20;21.70;;;;;;2252691;61;20386;-54
2024/01/14 02:06:09;0.00;0.00;0.62;0.00;0.00;0.62;3.13;1.90;;;18.20;21.70;;;;;;2252933;61;20362;-55
2024/01/14 02:08:54;0.00;0.00;0.62;0.00;0.00;0.62;2.30;1.83;;;18.20;21.70;;;;;;2252700;61;20398;-59
2024/01/14 02:11:39;0.00;0.00;0.62;0.00;0.00;0.62;2.27;1.50;;;18.20;21.70;;;;;;2252422;61;20362;-59
2024/01/14 02:14:24;0.00;0.00;0.62;0.00;0.00;0.62;2.80;2.10;;;18.20;21.70;;;;;;2253033;61;20899;-57
2024/01/14 02:17:08;0.00;0.00;0.62;0.00;0.00;0.62;3.07;2.30;;;18.20;21.70;;;;;;2252450;61;20426;-58
2024/01/14 02:19:53;0.00;0.00;0.62;0.00;0.00;0.62;2.80;1.83;;;18.20;21.70;;;;;;2250499;61;20380;-59
2024/01/14 02:22:41;0.00;0.00;0.62;0.00;0.00;0.62;5.03;2.27;;;18.20;21.70;;;;;;2628767;45;20805;-57
2024/01/14 02:25:27;0.00;0.00;0.62;0.00;0.00;0.62;3.33;2.07;;;18.20;21.70;;;;;;2248312;61;20906;-56
2024/01/14 02:28:12;0.00;0.00;0.62;0.00;0.00;0.62;3.10;2.13;;;18.20;21.70;;;;;;2248644;61;20376;-57
2024/01/14 02:30:58;0.00;0.00;0.62;0.00;0.00;0.62;2.63;1.60;;;18.20;21.70;;;;;;2249460;61;20382;-57
2024/01/14 02:33:42;0.00;0.00;0.62;0.00;0.00;0.62;2.33;1.77;;;18.20;21.70;;;;;;2251552;61;20394;-55
2024/01/14 02:36:27;0.00;0.00;0.62;0.00;0.00;0.62;2.40;1.70;;;18.20;21.70;;;;;;2252690;61;20366;-57
2024/01/14 02:39:11;0.00;0.00;0.62;0.00;0.00;0.62;2.87;2.20;;;18.20;21.70;;;;;;2252865;61;20370;-57
2024/01/14 02:41:57;0.00;0.00;0.62;0.00;0.00;0.62;2.90;1.83;;;18.20;21.70;;;;;;2252078;61;20395;-54
2024/01/14 02:44:42;0.00;0.00;0.62;0.00;0.00;0.62;2.90;1.80;;;18.20;21.70;;;;;;2252953;61;20426;-52
2024/01/14 02:47:26;0.00;0.00;0.62;0.00;0.00;0.62;2.23;1.60;;;18.20;21.70;;;;;;2252300;61;20386;-52
2024/01/14 02:50:11;0.00;0.00;0.62;0.00;0.00;0.62;2.80;1.90;;;18.20;21.70;;;;;;2252741;61;20359;-57
2024/01/14 02:52:55;0.00;0.00;0.62;0.00;0.00;0.62;2.30;1.83;;;18.20;21.70;;;;;;2252363;61;20866;-58
2024/01/14 02:55:40;0.00;0.00;0.62;0.00;0.00;0.62;2.73;2.03;;;18.20;21.70;;;;;;2252466;61;20366;-55
2024/01/14 02:58:26;0.00;0.00;0.62;0.00;0.00;0.62;2.73;1.70;;;18.20;21.70;;;;;;2252666;61;20794;-58
2024/01/14 03:01:13;0.00;0.00;0.62;0.00;0.00;0.62;3.00;1.80;;;18.20;21.70;;;;;;2252775;61;20422;-54
2024/01/14 03:03:58;0.00;0.00;0.62;0.00;0.00;0.62;2.57;1.60;;;18.20;21.70;;;;;;2252245;61;20435;-56
2024/01/14 03:06:43;0.00;0.00;0.62;0.00;0.00;0.62;2.93;1.73;;;18.20;21.70;;;;;;2252741;61;20886;-59
2024/01/14 03:09:27;0.00;0.00;0.62;0.00;0.00;0.62;2.47;1.57;;;18.20;21.70;;;;;;2252690;61;20902;-56
2024/01/14 03:12:12;0.00;0.00;0.62;0.00;0.00;0.62;2.50;1.77;;;18.20;21.80;;;;;;2252471;61;20366;-55
2024/01/14 03:14:58;0.00;0.00;0.62;0.00;0.00;0.62;2.40;1.40;;;18.20;21.70;;;;;;2252723;61;20937;-53
2024/01/14 03:17:42;0.00;0.00;0.62;0.00;0.00;0.62;2.40;1.73;;;18.20;21.70;;;;;;2252591;61;21018;-58
2024/01/14 03:20:27;0.00;0.00;0.62;0.00;0.00;0.62;2.80;1.77;;;18.20;21.80;;;;;;2252426;61;20399;-55
2024/01/14 03:23:12;0.00;0.00;0.62;0.00;0.00;0.62;1.90;1.30;;;18.20;21.70;;;;;;2252303;61;20785;-59
2024/01/14 03:25:56;0.00;0.00;0.62;0.00;0.00;0.62;2.70;1.57;;;18.20;21.80;;;;;;2252217;61;20421;-60
2024/01/14 03:28:41;0.00;0.00;0.62;0.00;0.00;0.62;2.23;1.30;;;18.20;21.80;;;;;;2252737;61;20370;-59
2024/01/14 03:31:27;0.00;0.00;0.62;0.00;0.00;0.62;1.93;1.33;;;18.20;21.80;;;;;;2251675;61;20406;-58
2024/01/14 03:34:11;0.00;0.00;0.62;0.00;0.00;0.62;2.40;1.53;;;18.20;21.80;;;;;;2251236;61;20448;-52
2024/01/14 03:36:56;0.00;0.00;0.62;0.00;0.00;0.62;2.00;1.20;;;18.20;21.80;;;;;;2252545;61;20914;-55
2024/01/14 03:39:41;0.00;0.00;0.62;0.00;0.00;0.62;2.53;1.67;;;18.20;21.80;;;;;;2252657;61;20960;-57
2024/01/14 03:42:26;0.00;0.00;0.62;0.00;0.00;0.62;1.70;1.10;;;18.20;21.80;;;;;;2252409;61;20752;-56
2024/01/14 03:45:10;0.00;0.00;0.62;0.00;0.00;0.62;2.53;1.97;;;18.20;21.80;;;;;;2252822;61;20434;-53
2024/01/14 03:47:56;0.00;0.00;0.62;0.00;0.00;0.62;2.20;1.40;;;18.20;21.80;;;;;;2252571;61;20800;-62
2024/01/14 03:50:41;0.00;0.00;0.62;0.00;0.00;0.62;1.50;1.00;;;18.20;21.80;;;;;;2252513;61;20371;-54
2024/01/14 03:53:26;0.00;0.00;0.62;0.00;0.00;0.62;2.27;1.60;;;18.20;21.80;;;;;;2252346;61;20390;-59
2024/01/14 03:56:11;0.00;0.00;0.62;0.00;0.00;0.62;1.80;1.33;;;18.20;21.80;;;;;;2251807;61;20409;-63
2024/01/14 03:58:55;0.00;0.00;0.62;0.00;0.00;0.62;1.80;1.30;;;18.20;21.80;;;;;;2252559;61;20956;-58
2024/01/14 04:01:40;0.00;0.00;0.62;0.00;0.00;0.62;2.47;1.20;;;18.20;22.30;;;;;;2251987;61;20419;-58
2024/01/14 04:04:27;0.00;0.00;0.62;0.00;0.00;0.62;2.30;1.17;;;18.20;21.80;;;;;;2252517;61;20918;-58
2024/01/14 04:07:11;0.00;0.00;0.62;0.00;0.00;0.62;1.93;1.23;;;18.20;21.80;;;;;;2252569;61;20378;-55
2024/01/14 04:09:56;0.00;0.00;0.62;0.00;0.00;0.62;1.80;1.10;;;18.20;21.80;;;;;;2252063;61;20386;-58
2024/01/14 04:12:41;0.00;0.00;0.62;0.00;0.00;0.62;2.00;1.20;;;18.20;21.80;;;;;;2252079;61;20782;-59
2024/01/14 04:15:25;0.00;0.00;0.62;0.00;0.00;0.62;2.30;1.43;;;18.20;21.80;;;;;;2252397;61;20363;-59
2024/01/14 04:18:10;0.00;0.00;0.62;0.00;0.00;0.62;2.13;1.30;;;18.20;21.80;;;;;;2252247;61;20824;-57
2024/01/14 04:20:57;0.00;0.00;0.62;0.00;0.00;0.62;1.70;1.10;;;18.20;21.80;;;;;;2252308;61;20398;-55
2024/01/14 04:23:41;0.00;0.00;0.62;0.00;0.00;0.62;2.57;1.37;;;18.20;21.80;;;;;;2252167;61;20939;-57
2024/01/14 04:26:26;0.00;0.00;0.62;0.00;0.00;0.62;1.70;1.00;;;18.20;21.80;;;;;;2252409;61;20382;-60
2024/01/14 04:29:11;0.00;0.00;0.62;0.00;0.00;0.62;1.50;0.93;;;18.20;21.80;;;;;;2252175;61;20374;-58
2024/01/14 04:31:56;0.00;0.00;0.62;0.00;0.00;0.62;2.10;1.27;;;18.20;21.80;;;;;;2251152;61;20938;-57
2024/01/14 04:34:40;0.00;0.00;0.62;0.00;0.00;0.62;2.13;1.00;;;18.20;21.80;;;;;;2251473;61;20414;-58
2024/01/14 04:37:26;0.00;0.00;0.62;0.00;0.00;0.62;1.60;1.07;;;18.20;21.80;;;;;;2252415;61;20402;-58
2024/01/14 04:40:11;0.00;0.00;0.62;0.00;0.00;0.62;1.97;1.00;;;18.20;21.80;;;;;;2252248;61;20371;-56
2024/01/14 04:42:56;0.00;0.00;0.62;0.00;0.00;0.62;1.60;1.00;;;18.20;21.80;;;;;;2251969;61;20449;-60
2024/01/14 04:45:40;0.00;0.00;0.62;0.00;0.00;0.62;2.00;1.17;;;18.20;21.80;;;;;;2252523;61;20785;-58
2024/01/14 04:48:25;0.00;0.00;0.62;0.00;0.00;0.62;1.60;1.00;;;18.20;21.80;;;;;;2252197;61;20375;-58
2024/01/14 04:51:10;0.00;0.00;0.62;0.00;0.00;0.62;1.50;0.90;;;18.20;21.80;;;;;;2252344;61;20414;-58
2024/01/14 04:53:55;0.00;0.00;0.62;0.00;0.00;0.62;1.70;1.00;;;18.20;21.80;;;;;;2251671;61;20537;-62
2024/01/14 04:56:40;0.00;0.00;0.62;0.00;0.00;0.62;1.70;0.93;;;18.20;21.80;;;;;;2252238;61;20493;-59
2024/01/14 04:59:25;0.00;0.00;0.62;0.00;0.00;0.62;1.83;1.10;;;18.20;21.80;;;;;;2251870;61;20367;-57
2024/01/14 05:02:09;0.00;0.00;0.62;0.00;0.00;0.62;1.77;0.97;;;18.20;21.80;;;;;;2251474;61;20386;-58
2024/01/14 05:04:53;0.00;0.00;0.62;0.00;0.00;0.62;2.00;1.10;;;18.20;21.80;;;;;;2251794;61;20438;-58
2024/01/14 05:07:39;0.00;0.00;0.62;0.00;0.00;0.62;2.03;0.93;;;18.20;21.80;;;;;;2252655;61;20425;-59
2024/01/14 05:10:24;0.00;0.00;0.62;0.00;0.00;0.62;1.70;1.00;;;18.20;21.80;;;;;;2252203;61;20748;-59
2024/01/14 05:13:09;0.00;0.00;0.62;0.00;0.00;0.62;1.57;0.87;;;18.20;21.80;;;;;;2251938;61;20386;-58
2024/01/14 05:15:54;0.00;0.00;0.62;0.00;0.00;0.62;1.70;0.90;;;18.20;21.80;;;;;;2252229;61;20366;-58
2024/01/14 05:18:38;0.00;0.00;0.62;0.00;0.00;0.62;2.30;1.10;;;18.20;21.80;;;;;;2252375;61;20441;-57
2024/01/14 05:21:23;0.00;0.00;0.62;0.00;0.00;0.62;1.70;0.97;;;18.20;21.80;;;;;;2252075;61;20442;-56
2024/01/14 05:24:07;0.00;0.00;0.62;0.00;0.00;0.62;1.50;0.93;;;18.20;21.80;;;;;;2252044;61;20386;-58
2024/01/14 05:26:54;0.00;0.00;0.62;0.00;0.00;0.62;1.67;1.00;;;18.20;21.80;;;;;;2252282;61;20860;-56
2024/01/14 05:29:40;0.00;0.00;0.62;0.00;0.00;0.62;1.80;0.90;;;18.20;21.80;;;;;;2252183;61;20374;-57
2024/01/14 05:32:25;0.00;0.00;0.62;0.00;0.00;0.62;1.60;0.93;;;18.20;21.80;;;;;;2251162;61;20363;-55
2024/01/14 05:35:10;0.00;0.00;0.62;0.00;0.00;0.62;1.57;0.80;;;18.20;21.80;;;;;;2252294;61;20370;-57
2024/01/14 05:37:54;0.00;0.00;0.62;0.00;0.00;0.62;1.57;0.90;;;18.20;21.80;;;;;;2251702;61;20425;-60
2024/01/14 05:40:39;0.00;0.00;0.62;0.00;0.00;0.62;1.53;1.00;;;18.20;21.80;;;;;;2252169;61;20422;-56
2024/01/14 05:43:26;0.00;0.00;0.62;0.00;0.00;0.62;2.07;1.13;;;18.20;21.80;;;;;;2251757;61;21042;-56
2024/01/14 05:46:10;0.00;0.00;0.62;0.00;0.00;0.62;1.80;1.00;;;18.20;21.80;;;;;;2252055;61;20402;-58
2024/01/14 05:48:55;0.00;0.00;0.62;0.00;0.00;0.62;1.57;0.90;;;18.20;21.80;;;;;;2252222;61;20363;-57
2024/01/14 05:51:39;0.00;0.00;0.62;0.00;0.00;0.62;1.63;0.83;;;18.20;21.80;;;;;;2251871;61;20466;-59
2024/01/14 05:54:24;0.00;0.00;0.62;0.00;0.00;0.62;1.70;0.90;;;18.20;21.80;;;;;;2252004;61;20429;-58
2024/01/14 05:57:09;0.00;0.00;0.62;0.00;0.00;0.62;1.50;0.80;;;18.20;21.80;;;;;;2252105;61;21076;-59
2024/01/14 05:59:54;0.00;0.00;0.62;0.00;0.00;0.62;1.60;0.90;;;18.20;21.80;;;;;;2252229;61;20370;-57
2024/01/14 06:02:39;0.00;0.00;0.62;0.00;0.00;0.62;1.57;0.90;;;18.20;21.80;;;;;;2251648;61;20903;-58
2024/01/14 06:05:24;0.00;0.00;0.62;0.00;0.00;0.62;1.50;0.80;;;18.20;21.80;;;;;;2252228;61;20451;-59
2024/01/14 06:08:08;0.00;0.00;0.62;0.00;0.00;0.62;1.40;0.70;;;18.30;21.90;;;;;;2251977;61;20367;-57
2024/01/14 06:10:53;0.00;0.00;0.62;0.00;0.00;0.62;1.50;0.90;;;18.30;21.90;;;;;;2252297;61;20412;-57
2024/01/14 06:13:37;0.00;0.00;0.62;0.00;0.00;0.62;1.40;0.90;;;18.30;21.90;;;;;;2251702;61;20402;-59
2024/01/14 06:16:25;0.00;0.00;0.62;0.00;0.00;0.62;1.30;0.70;;;18.30;21.90;;;;;;2251839;61;20421;-59
2024/01/14 06:19:09;0.00;0.00;0.62;0.00;0.00;0.62;2.20;0.80;;;18.30;21.90;;;;;;2252059;61;20374;-58
2024/01/14 06:21:53;0.00;0.00;0.62;0.00;0.00;0.62;1.83;0.90;;;18.20;22.30;;;;;;2251692;61;20385;-60
2024/01/14 06:24:39;0.00;0.00;0.62;0.00;0.00;0.62;1.80;1.00;;;18.20;21.80;;;;;;2251692;61;20477;-58
2024/01/14 06:27:25;0.00;0.00;0.62;0.00;0.00;0.62;1.70;0.90;;;18.30;21.90;;;;;;2251652;61;20398;-58
2024/01/14 06:30:12;0.00;0.00;0.62;0.00;0.00;0.62;2.17;0.83;;;18.30;21.90;;;;;;2251454;61;20517;-59
2024/01/14 06:32:59;0.00;0.00;0.62;0.00;0.00;0.62;1.80;0.70;;;18.20;21.80;;;;;;2250607;61;20429;-58
2024/01/14 06:35:43;0.00;0.00;0.62;0.00;0.00;0.62;1.30;0.70;;;18.30;21.90;;;;;;2252651;61;20370;-58
2024/01/14 06:38:28;0.00;0.00;0.62;0.00;0.00;0.62;2.07;0.83;;;18.20;21.80;;;;;;2252659;61;20823;-59
2024/01/14 06:41:17;0.00;0.00;0.62;0.00;0.00;0.62;1.43;0.73;;;18.30;21.90;;;;;;2252620;61;20382;-60
2024/01/14 06:44:02;0.00;0.00;0.62;0.00;0.00;0.62;1.30;0.70;;;18.30;21.90;;;;;;2252730;61;20390;-59
2024/01/14 06:46:48;0.00;0.00;0.62;0.00;0.00;0.62;4.50;1.20;;;18.30;21.90;;;;;;2252508;61;20441;-56
2024/01/14 06:49:34;0.00;0.00;0.62;0.00;0.00;0.62;2.03;1.00;;;18.30;21.90;;;;;;2252769;61;20367;-60
2024/01/14 06:52:22;0.00;0.00;0.62;0.00;0.00;0.62;2.47;1.00;;;18.30;21.90;;;;;;2252338;61;20478;-59
2024/01/14 06:55:07;0.00;0.00;0.62;0.00;0.00;0.62;1.50;0.90;;;18.30;21.90;;;;;;2252718;61;20422;-58
2024/01/14 06:57:53;0.00;0.00;0.62;0.00;0.00;0.62;1.30;0.70;;;18.30;21.90;;;;;;2252725;61;20369;-60
2024/01/14 07:00:37;0.00;0.00;0.62;0.00;0.00;0.62;1.40;0.70;;;18.30;21.90;;;;;;2252394;61;20394;-56
2024/01/14 07:03:22;0.00;0.00;0.62;0.00;0.00;0.62;1.30;0.60;;;18.30;21.90;;;;;;2252448;61;20433;-57
2024/01/14 07:06:08;0.00;0.00;0.62;0.00;0.00;0.62;1.90;0.80;;;18.30;21.90;;;;;;2252669;61;20375;-61
2024/01/14 07:08:53;0.00;0.00;0.62;0.00;0.00;0.62;1.40;0.70;;;18.20;21.80;;;;;;2252595;61;20370;-58
2024/01/14 07:11:37;0.00;0.00;0.62;0.00;0.00;0.62;2.67;0.90;;;18.30;21.90;;;;;;2252447;61;20370;-56
2024/01/14 07:14:22;0.00;0.00;0.62;0.00;0.00;0.62;1.50;0.80;;;18.30;21.90;;;;;;2252342;61;20521;-59
2024/01/14 07:17:07;0.00;0.00;0.62;0.00;0.00;0.62;2.00;1.10;;;18.30;21.90;;;;;;2252631;61;20852;-59
2024/01/14 07:19:52;0.00;0.00;0.62;0.00;0.00;0.62;1.70;0.80;;;18.30;21.90;;;;;;2252866;61;20391;-60
2024/01/14 07:22:38;0.00;0.00;0.62;0.00;0.00;0.62;1.50;0.70;;;18.30;21.90;;;;;;2252035;61;20434;-58
2024/01/14 07:25:22;0.00;0.00;0.62;0.00;0.00;0.62;1.40;0.80;;;18.30;21.90;;;;;;2252796;61;20412;-59
2024/01/14 07:28:07;0.00;0.00;0.62;0.00;0.00;0.62;1.43;0.70;;;18.30;21.90;;;;;;2252509;61;20414;-59
2024/01/14 07:30:51;0.00;0.00;0.62;0.00;0.00;0.62;1.97;0.83;;;18.30;21.90;;;;;;2251715;61;20494;-55
2024/01/14 07:33:36;0.00;0.00;0.62;0.00;0.00;0.62;1.60;0.90;;;18.30;21.90;;;;;;2252384;61;20445;-63
2024/01/14 07:36:21;0.00;0.00;0.62;0.00;0.00;0.62;1.40;0.80;;;18.30;21.90;;;;;;2252514;61;20483;-58
2024/01/14 07:39:06;0.00;0.00;0.62;0.00;0.00;0.62;1.40;0.90;;;18.30;21.90;;;;;;2252459;61;20436;-60
2024/01/14 07:41:51;0.00;0.00;0.62;0.00;0.00;0.62;2.00;1.10;;;18.30;21.90;;;;;;2252173;61;20409;-63
2024/01/14 07:44:35;0.00;0.00;0.62;0.00;0.00;0.62;1.67;1.00;;;18.30;21.90;;;;;;2252306;61;20381;-55
2024/01/14 07:47:20;0.00;0.00;0.62;0.00;0.00;0.62;2.17;1.30;;;18.30;21.90;;;;;;2252625;61;20374;-59
2024/01/14 07:50:06;0.00;0.00;0.62;0.00;0.00;0.62;1.60;0.90;;;18.30;21.90;;;;;;2252138;61;20398;-58
2024/01/14 07:52:50;0.00;0.00;0.62;0.00;0.00;0.62;1.60;0.90;;;18.30;21.90;;;;;;2251914;61;20828;-55
2024/01/14 07:55:36;0.00;0.00;0.62;0.00;0.00;0.62;1.97;0.90;;;18.30;21.90;;;;;;2252635;61;20774;-57
2024/01/14 07:58:21;0.00;0.00;0.62;0.00;0.00;0.62;1.70;1.03;;;18.30;21.90;;;;;;2252513;61;20370;-57
2024/01/14 08:01:08;0.00;0.00;0.62;0.00;0.00;0.62;1.90;1.10;;;18.30;21.90;;;;;;2252180;61;20397;-58
2024/01/14 08:03:53;0.00;0.00;0.62;0.00;0.00;0.62;2.20;1.20;;;18.30;21.90;;;;;;2252387;61;20414;-55
2024/01/14 08:06:38;0.00;0.00;0.62;0.00;0.00;0.62;2.33;1.43;;;18.30;21.90;;;;;;2252347;61;20885;-56
2024/01/14 08:09:22;0.00;0.00;0.62;0.00;0.00;0.62;3.63;1.80;;;18.30;21.90;;;;;;2252605;61;20367;-56
2024/01/14 08:12:09;0.00;0.00;0.62;0.00;0.00;0.62;2.40;1.67;;;18.30;21.90;;;;;;2251983;61;20371;-56
2024/01/14 08:14:53;0.00;0.00;0.62;0.00;0.00;0.62;2.90;1.50;;;18.30;21.90;;;;;;2252250;61;20449;-60
2024/01/14 08:17:38;0.00;0.00;0.62;0.00;0.00;0.62;2.50;1.50;;;18.30;21.90;;;;;;2252479;61;20371;-56
2024/01/14 08:20:22;0.00;0.00;0.62;0.00;0.00;0.62;2.17;1.50;;;18.30;21.90;;;;;;2252445;61;20371;-60
2024/01/14 08:23:07;0.00;0.00;0.62;0.00;0.00;0.62;3.47;2.53;;;18.30;21.90;;;;;;2251737;61;20425;-53
2024/01/14 08:25:52;0.00;0.00;0.62;0.00;0.00;0.62;3.77;2.00;;;18.30;21.90;;;;;;2252499;61;20366;-59
2024/01/14 08:28:39;0.00;0.00;0.62;0.00;0.00;0.62;3.80;1.90;;;18.30;21.90;;;;;;2252258;61;20457;-56
2024/01/14 08:31:23;0.00;0.00;0.62;0.00;0.00;0.62;2.43;1.83;;;18.30;21.90;;;;;;2251684;61;20371;-55
2024/01/14 08:34:08;0.00;0.00;0.62;0.00;0.00;0.62;2.53;1.80;;;18.30;22.40;;;;;;2251504;61;20800;-55
2024/01/14 08:36:52;0.00;0.00;0.62;0.00;0.00;0.62;3.50;2.00;;;18.30;21.90;;;;;;2252288;61;20856;-57
2024/01/14 08:39:37;0.00;0.00;0.62;0.00;0.00;0.62;3.03;2.07;;;18.30;21.90;;;;;;2252357;61;20367;-59
2024/01/14 08:42:21;0.00;0.00;0.62;0.00;0.00;0.62;3.40;2.07;;;18.30;21.90;;;;;;2251786;61;20441;-62
2024/01/14 08:45:09;0.00;0.00;0.62;0.00;0.00;0.62;3.90;2.40;;;18.30;21.90;;;;;;2252238;61;20449;-57
2024/01/14 08:47:53;0.00;0.00;0.62;0.00;0.00;0.62;3.50;2.07;;;18.30;21.90;;;;;;2252469;61;20511;-56
2024/01/14 08:50:38;0.00;0.00;0.62;0.00;0.00;0.62;3.60;2.67;;;18.30;21.90;;;;;;2252297;61;20370;-58
2024/01/14 08:53:22;0.00;0.00;0.62;0.00;0.00;0.62;3.60;2.10;;;18.30;22.40;;;;;;2251999;61;20387;-59
2024/01/14 08:56:07;0.00;0.00;0.62;0.00;0.00;0.62;3.43;2.00;;;18.30;21.90;;;;;;2252193;61;20370;-60
2024/01/14 08:58:51;0.00;0.00;0.62;0.00;0.00;0.62;3.13;2.07;;;18.30;21.90;;;;;;2252064;61;20366;-56
2024/01/14 09:01:37;0.00;0.00;0.62;0.00;0.00;0.62;3.10;2.07;;;18.30;21.90;;;;;;2251948;61;20426;-61
2024/01/14 09:04:22;0.00;0.00;0.62;0.00;0.00;0.62;4.10;2.47;;;18.30;21.90;;;;;;2252372;61;20789;-58
2024/01/14 09:07:06;0.00;0.00;0.62;0.00;0.00;0.62;3.13;1.90;;;18.40;22.00;;;;;;2252070;61;20390;-60
2024/01/14 09:09:51;0.00;0.00;0.62;0.00;0.00;0.62;3.07;2.10;;;18.30;21.90;;;;;;2252384;61;20371;-57
2024/01/14 09:12:36;0.00;0.00;0.62;0.00;0.00;0.62;4.83;2.43;;;18.30;21.90;;;;;;2251841;61;20365;-57
2024/01/14 09:15:20;0.00;0.00;0.62;0.00;0.00;0.62;2.73;2.00;;;18.30;21.90;;;;;;2252562;61;20891;-58
2024/01/14 09:18:06;0.00;0.00;0.62;0.00;0.00;0.62;3.27;1.93;;;18.30;21.90;;;;;;2252129;61;20362;-59
2024/01/14 09:20:51;0.00;0.00;0.62;0.00;0.00;0.62;2.40;1.63;;;18.30;21.90;;;;;;2251815;61;20433;-58
2024/01/14 09:23:35;0.00;0.00;0.62;0.00;0.00;0.62;3.43;1.77;;;18.40;21.90;;;;;;2251465;61;20717;-59
2024/01/14 09:26:20;0.00;0.00;0.62;0.00;0.00;0.62;3.70;2.00;;;18.40;22.00;;;;;;2251786;61;20379;-61
2024/01/14 09:29:04;0.00;0.00;0.62;0.00;0.00;0.62;3.03;1.80;;;18.40;22.00;;;;;;2251982;61;20425;-58
2024/01/14 09:31:49;0.00;0.00;0.62;0.00;0.00;0.62;3.30;2.33;;;18.30;21.90;;;;;;2251349;61;20382;-55
2024/01/14 09:34:35;0.00;0.00;0.62;0.00;0.00;0.62;3.13;1.80;;;18.40;21.90;;;;;;2251295;61;20422;-57
2024/01/14 09:37:19;0.00;0.00;0.62;0.00;0.00;0.62;2.53;1.73;;;18.40;22.00;;;;;;2252112;61;20374;-53
2024/01/14 09:40:06;0.00;0.00;0.62;0.00;0.00;0.62;3.10;2.17;;;18.40;22.50;;;;;;2252307;61;20395;-58
2024/01/14 09:42:55;0.00;0.00;0.62;0.00;0.00;0.62;2.77;1.97;;;18.40;22.00;;;;;;2248728;61;20387;-57
2024/01/14 09:45:40;0.00;0.00;0.62;0.00;0.00;0.62;2.93;1.60;;;18.40;22.00;;;;;;2252386;61;20390;-58
2024/01/14 09:48:25;0.00;0.00;0.62;0.00;0.00;0.62;3.20;2.00;;;18.40;22.00;;;;;;2252305;61;20371;-54
2024/01/14 09:51:11;0.00;0.00;0.62;0.00;0.00;0.62;3.03;1.80;;;18.40;22.00;;;;;;2251994;61;20828;-61
2024/01/14 09:54:00;0.00;0.00;0.62;0.00;0.00;0.62;3.90;1.80;;;18.40;22.00;;;;;;2252072;61;20395;-62
2024/01/14 09:56:48;0.00;0.00;0.62;0.00;0.00;0.62;2.67;1.80;;;18.40;22.00;;;;;;2252267;61;20927;-59
2024/01/14 09:59:35;0.00;0.00;0.62;0.00;0.00;0.62;3.80;1.90;;;18.40;22.00;;;;;;2252212;61;20370;-60
2024/01/14 10:02:21;0.00;0.00;0.62;0.00;0.00;0.62;2.83;1.60;;;18.40;22.00;;;;;;2251703;61;20430;-57
2024/01/14 10:05:07;0.00;0.00;0.62;0.00;0.00;0.62;3.20;2.07;;;18.40;22.00;;;;;;2252035;61;20366;-58
2024/01/14 10:07:53;0.00;0.00;0.62;0.00;0.00;0.62;3.33;1.70;;;18.40;22.50;;;;;;2252169;61;20899;-58
2024/01/14 10:10:38;0.00;0.00;0.62;0.00;0.00;0.62;3.30;1.97;;;18.40;22.00;;;;;;2252887;61;20371;-58
2024/01/14 10:13:22;0.00;0.00;0.62;0.00;0.00;0.62;3.20;1.70;;;18.40;22.00;;;;;;2252240;61;20797;-57
2024/01/14 10:16:07;0.00;0.00;0.62;0.00;0.00;0.62;2.30;1.57;;;18.40;22.00;;;;;;2252868;61;20502;-58
2024/01/14 10:18:55;0.00;0.00;0.62;0.00;0.00;0.62;2.83;1.70;;;18.40;22.00;;;;;;2252780;61;20413;-58
2024/01/14 10:21:41;0.00;0.00;0.62;0.00;0.00;0.62;3.43;1.90;;;18.40;22.00;;;;;;2252111;61;20961;-56
2024/01/14 10:24:28;0.00;0.00;0.62;0.00;0.00;0.62;3.27;1.90;;;18.40;22.00;;;;;;2252624;61;20448;-59
2024/01/14 10:27:12;0.00;0.00;0.62;0.00;0.00;0.62;2.70;1.63;;;18.40;22.00;;;;;;2252677;61;20513;-59
2024/01/14 10:29:57;0.00;0.00;0.62;0.00;0.00;0.62;3.20;2.10;;;18.40;22.00;;;;;;2252782;61;20402;-56
2024/01/14 10:32:41;0.00;0.00;0.62;0.00;0.00;0.62;3.10;1.90;;;18.40;22.00;;;;;;2252434;61;20836;-57
2024/01/14 10:35:27;0.00;0.00;0.62;0.00;0.00;0.62;3.77;2.03;;;18.40;22.00;;;;;;2252220;61;20800;-59
2024/01/14 10:38:12;0.00;0.00;0.62;0.00;0.00;0.62;2.77;1.70;;;18.40;22.10;;;;;;2252662;61;20374;-57
2024/01/14 10:40:58;0.00;0.00;0.62;0.00;0.00;0.62;3.00;1.80;;;18.40;22.00;;;;;;2252486;61;20390;-59
2024/01/14 10:43:42;0.00;0.00;0.62;0.00;0.00;0.62;2.60;1.60;;;18.40;22.00;;;;;;2252384;61;20394;-56
2024/01/14 10:46:30;0.00;0.00;0.62;0.00;0.00;0.62;2.23;1.87;;;18.40;22.00;;;;;;2252749;61;20609;-58
2024/01/14 10:49:17;0.00;0.00;0.62;0.00;0.00;0.62;2.80;1.60;;;18.40;22.00;;;;;;2252687;61;20429;-56
2024/01/14 10:52:08;0.00;0.00;0.62;0.00;0.00;0.62;2.70;1.70;;;18.40;22.00;;;;;;2252590;61;20363;-56